Main page
METAR-TAF:

METAR-TAF

Airports :

Mehrabad International Airport

Tehran, Iran

latitude: 35-41N, longitude: 051-21E, elevation: 1204 m

Current weather observation

The report was made 7 minutes ago, at 03:30 UTC
Wind 8 kt from the West/Southwest
Temperature 20°C
Humidity 53%
Pressure 1017 hPa
Visibility: 8000 m

METAR: OIII 270330Z 25008KT 8000 NSC 20/10 Q1017 A3004

Time: 08:07 (03:37 UTC)

Forecast

The report was made 4 hours and 37 minutes ago, at 23:00 UTC
Forecast valid from 27 at 00 UTC to 28 at 06 UTC
Wind 8 kt from the West/Northwest
Visibility: 8000 m
Few clouds at a height of 10000 ft
Temporary
from 27 at 11 UTC to 27 at 15 UTC
Few clouds at a height of 3500 ft, Towering cumulus.
Scattered clouds at a height of 4000 ft
Temporary
from 27 at 15 UTC to 27 at 20 UTC
Wind 21 kt from the West/Northwest
Visibility: 4000 m
sand

TAF: OIII 262300Z 2700/2806 30004MPS 8000 FEW100 TEMPO 2711/2715 FEW035TCU SCT040 TEMPO 2715/2720 30011MPS 4000 SA

Weather observations and forecasts of more than 4000 airports (METAR and TAF reports).

The available stations are represented by yellow and red dots on the map.

Hover mouse over dot to see the name of the station.

Then click to see weather observations and forecasts.

To change the map : click on the green buttons with a black cross to zoom in, on the green button with a dash to zoom out, or on the green arrows for adjacent maps.


METAR-TAF: